EGNS/IOM METAR and TAF weather

Enter ICAO airport designator
Station Type Date Time Source
EGNS METAR 2018/07/21 13:20 UTC NOAA

EGNS 211320Z 28011KT 9999 FEW012 SCT022 17/11 Q1015 NOSIG


Station Type Date Time Source
EGNS Decoded METAR 2018/07/21 13:20 UTC NOAA

Isle Of Man / Ronaldsway Airport, United Kingdom (EGNS) 54-05N 004-38W 0M
Jul 21, 2018 - 09:20 AM EDT / 2018.07.21 1320 UTC
Wind: from the W (280 degrees) at 13 MPH (11 KT):0
Visibility: greater than 7 mile(s):0
Sky conditions: partly cloudy
Temperature: 62 F (17 C)
Dew Point: 51 F (11 C)
Relative Humidity: 67%
Pressure (altimeter): 29.97 in. Hg (1015 hPa)
ob: EGNS 211320Z 28011KT 9999 FEW012 SCT022 17/11 Q1015 NOSIG
cycle: 13

Station Type Date Time Source
EGNS TAF 2017/03/09 09:27 UTC NOAA

TAF TAF EGNS 090800Z 0909/0921 29012KT 9999 SCT018


Example: see airport list